Marfa, TX

6:46 AM CDT on April 30, 2017 (GMT -0500)
Marfa Municipal

Weather History for KMRF - January, 2014

Change the Weather History Date:

Wednesday, January 1, 2014

  Actual Average Record
Temperature  
Mean Temperature 42 °F -  
Max Temperature 62 °F 56 °F 71 °F (2000)
Min Temperature 21 °F 25 °F 15 °F (2008)
Degree Days  
Heating Degree Days 24    
Moisture  
Dew Point 23 °F    
Average Humidity 56    
Maximum Humidity 93    
Minimum Humidity 18    
Precipitation  
Precipitation 0.00 in - - ()
Sea Level Pressure  
Sea Level Pressure 30.16 in    
Wind  
Wind Speed 7 mph (NW)    
Max Wind Speed 20 mph    
Max Gust Speed 28 mph    
Visibility 10 miles    
Events      
Averages and records for this station are not official NWS values.
T = Trace of Precipitation, MM = Missing Value Source: NWS Daily Summary

Daily Weather History Graph

Daily Weather History Graph

Search for Another Location

Airport or City:

Trip Planner

Search our weather history database for the weather conditions in past years. The results will help you decide how hot, cold, wet, or windy it might be!

Date:

Astronomy

Jan. 01, 2014 Rise Set
Actual Time 7:52 AM CST 6:06 PM CST
Civil Twilight 7:26 AM CST 6:33 PM CST
Nautical Twilight 6:56 AM CST 7:03 PM CST
Astronomical Twilight 6:27 AM CST 7:32 PM CST
Moon 7:50 AM CST (1/1) 6:49 PM CST (1/1)
Length of Visible Light 11h 06m
Length of Day
10h 13m
New Moon, 0% of the Moon is Illuminated
Jan 1
New Moon
Jan 7
First Quarter
Jan 15
Full
Jan 23
Last Quarter
Jan 30
New

Hourly Weather History & Observations

Time (CST) Temp. Windchill Dew Point Humidity Pressure Visibility Wind Dir Wind Speed Gust Speed Precip Events Conditions
12:15 AM 24.8 °F 20.5 °F 21.2 °F 86% 30.21 in 10.0 mi NE 3.5 mph - N/A   Clear
12:35 AM 24.8 °F 20.5 °F 21.2 °F 86% 30.20 in 10.0 mi NNE 3.5 mph - N/A   Clear
12:55 AM 24.8 °F 19.1 °F 19.4 °F 80% 30.19 in 10.0 mi NNW 4.6 mph - N/A   Clear
1:15 AM 24.8 °F 17.9 °F 19.4 °F 80% 30.18 in 10.0 mi NNW 5.8 mph - N/A   Clear
1:35 AM 24.8 °F 17.9 °F 19.4 °F 80% 30.18 in 10.0 mi NNE 5.8 mph - N/A   Clear
1:55 AM 24.8 °F 19.1 °F 21.2 °F 86% 30.17 in 10.0 mi NNW 4.6 mph - N/A   Clear
2:15 AM 24.8 °F 20.5 °F 19.4 °F 80% 30.17 in 10.0 mi NNW 3.5 mph - N/A   Clear
2:35 AM 24.8 °F 20.5 °F 21.2 °F 86% 30.16 in 10.0 mi North 3.5 mph - N/A   Clear
2:55 AM 23.0 °F 17.0 °F 19.4 °F 86% 30.16 in 10.0 mi NE 4.6 mph - N/A   Clear
3:15 AM 23.0 °F 17.0 °F 19.4 °F 86% 30.16 in 10.0 mi NNE 4.6 mph - N/A   Clear
3:35 AM 24.8 °F 19.1 °F 19.4 °F 80% 30.16 in 10.0 mi North 4.6 mph - N/A   Clear
3:55 AM 24.8 °F 19.1 °F 19.4 °F 80% 30.16 in 10.0 mi NNW 4.6 mph - N/A   Clear
4:15 AM 23.0 °F 18.4 °F 19.4 °F 86% 30.16 in 10.0 mi WNW 3.5 mph - N/A   Clear
4:35 AM 24.8 °F 19.1 °F 21.2 °F 86% 30.15 in 10.0 mi NW 4.6 mph - N/A   Clear
4:55 AM 24.8 °F 20.5 °F 21.2 °F 86% 30.15 in 10.0 mi North 3.5 mph - N/A   Clear
5:15 AM 23.0 °F - 19.4 °F 86% 30.15 in 10.0 mi Calm Calm - N/A   Clear
5:35 AM 24.8 °F 20.5 °F 21.2 °F 86% 30.14 in 10.0 mi North 3.5 mph - N/A   Clear
5:55 AM 23.0 °F 17.0 °F 19.4 °F 86% 30.14 in 10.0 mi NNE 4.6 mph - N/A   Clear
6:15 AM 24.8 °F 19.1 °F 19.4 °F 80% 30.14 in 10.0 mi North 4.6 mph 27.6 mph N/A   Clear
6:35 AM 24.8 °F 20.5 °F 21.2 °F 86% 30.15 in 10.0 mi NE 3.5 mph - N/A   Clear
6:55 AM 21.2 °F 16.4 °F 17.6 °F 86% 30.15 in 10.0 mi NE 3.5 mph - N/A   Clear
7:15 AM 23.0 °F 18.4 °F 19.4 °F 86% 30.15 in 10.0 mi North 3.5 mph - N/A   Clear
7:35 AM 24.8 °F 17.9 °F 21.2 °F 86% 30.15 in 10.0 mi North 5.8 mph - N/A   Clear
7:55 AM 24.8 °F - 21.2 °F 86% 30.16 in 10.0 mi Calm Calm - N/A   Clear
8:15 AM 24.8 °F 19.1 °F 19.4 °F 80% 30.16 in 10.0 mi NNE 4.6 mph - N/A   Clear
8:35 AM 26.6 °F 22.6 °F 24.8 °F 93% 30.16 in 10.0 mi ENE 3.5 mph - N/A   Clear
8:55 AM 33.8 °F 29.6 °F 28.4 °F 81% 30.16 in 10.0 mi ESE 4.6 mph - N/A   Clear
9:15 AM 39.2 °F - 30.2 °F 70% 30.17 in 10.0 mi Calm Calm - N/A   Clear
9:35 AM 41.0 °F 37.1 °F 30.2 °F 65% 30.17 in 10.0 mi SSE 5.8 mph - N/A   Clear
9:55 AM 44.6 °F 40.7 °F 28.4 °F 53% 30.18 in 10.0 mi South 6.9 mph - N/A   Clear
10:15 AM 46.4 °F 42.4 °F 28.4 °F 50% 30.17 in 10.0 mi South 8.1 mph - N/A   Clear
10:35 AM 48.2 °F - 28.4 °F 46% 30.17 in 10.0 mi South 8.1 mph - N/A   Clear
10:55 AM 51.8 °F - 30.2 °F 44% 30.18 in 10.0 mi South 9.2 mph - N/A   Clear
11:15 AM 55.4 °F - 30.2 °F 38% 30.18 in 10.0 mi WSW 16.1 mph 19.6 mph N/A   Clear
11:35 AM 55.4 °F - 30.2 °F 38% 30.18 in 10.0 mi WSW 17.3 mph 21.9 mph N/A   Clear
11:55 AM 57.2 °F - 28.4 °F 33% 30.17 in 10.0 mi West 17.3 mph 21.9 mph N/A   Clear
12:15 PM 57.2 °F - 28.4 °F 33% 30.17 in 10.0 mi WSW 17.3 mph 21.9 mph N/A   Clear
12:35 PM 59.0 °F - 28.4 °F 31% 30.16 in 10.0 mi WSW 13.8 mph 23.0 mph N/A   Clear
12:55 PM 60.8 °F - 28.4 °F 29% 30.14 in 10.0 mi WSW 13.8 mph 17.3 mph N/A   Clear
1:15 PM 60.8 °F - 26.6 °F 27% 30.13 in 10.0 mi West 15.0 mph 21.9 mph N/A   Clear
1:35 PM 60.8 °F - 23.0 °F 23% 30.12 in 10.0 mi West 16.1 mph 23.0 mph N/A   Clear
1:55 PM 60.8 °F - 23.0 °F 23% 30.11 in 10.0 mi West 17.3 mph 23.0 mph N/A   Clear
2:15 PM 62.6 °F - 21.2 °F 20% 30.10 in 10.0 mi West 19.6 mph 25.3 mph N/A   Clear
2:35 PM 62.6 °F - 17.6 °F 18% 30.11 in 10.0 mi WNW 18.4 mph 23.0 mph N/A   Clear
2:55 PM 62.6 °F - 19.4 °F 19% 30.10 in 10.0 mi West 18.4 mph - N/A   Clear
3:15 PM 60.8 °F - 21.2 °F 22% 30.10 in 10.0 mi West 19.6 mph 25.3 mph N/A   Clear
3:35 PM 60.8 °F - 19.4 °F 20% 30.09 in 10.0 mi West 16.1 mph - N/A   Clear
3:55 PM 60.8 °F - 19.4 °F 20% 30.09 in 10.0 mi West 15.0 mph 19.6 mph N/A   Clear
4:15 PM 60.8 °F - 19.4 °F 20% 30.10 in 10.0 mi WNW 15.0 mph 20.7 mph N/A   Clear
4:35 PM 60.8 °F - 21.2 °F 22% 30.11 in 10.0 mi West 13.8 mph 17.3 mph N/A   Clear
4:55 PM 59.0 °F - 23.0 °F 25% 30.11 in 10.0 mi West 13.8 mph - N/A   Clear
5:15 PM 57.2 °F - 23.0 °F 27% 30.11 in 10.0 mi West 13.8 mph - N/A   Clear
5:35 PM 57.2 °F - 23.0 °F 27% 30.12 in 10.0 mi West 11.5 mph - N/A   Clear
5:55 PM 55.4 °F - 23.0 °F 29% 30.12 in 10.0 mi WNW 9.2 mph - N/A   Clear
6:15 PM 51.8 °F - 23.0 °F 33% 30.13 in 10.0 mi WNW 5.8 mph - N/A   Clear
6:35 PM 46.4 °F 42.4 °F 24.8 °F 43% 30.14 in 10.0 mi West 8.1 mph - N/A   Clear
6:55 PM 46.4 °F 43.5 °F 24.8 °F 43% 30.15 in 10.0 mi West 5.8 mph - N/A   Clear
7:15 PM 46.4 °F 42.4 °F 23.0 °F 40% 30.16 in 10.0 mi West 8.1 mph - N/A   Clear
7:35 PM 46.4 °F 41.9 °F 23.0 °F 40% 30.16 in 10.0 mi WNW 9.2 mph - N/A   Clear
7:55 PM 46.4 °F 41.1 °F 21.2 °F 37% 30.17 in 10.0 mi West 11.5 mph - N/A   Clear
8:15 PM 44.6 °F 38.8 °F 21.2 °F 39% 30.17 in 10.0 mi West 11.5 mph - N/A   Clear
8:35 PM 39.2 °F 33.6 °F 21.2 °F 49% 30.18 in 10.0 mi NNE 8.1 mph - N/A   Clear
8:55 PM 41.0 °F 39.0 °F 21.2 °F 45% 30.18 in 10.0 mi North 3.5 mph - N/A   Clear
9:15 PM 37.4 °F 33.8 °F 21.2 °F 52% 30.19 in 10.0 mi NW 4.6 mph - N/A   Clear
9:35 PM 33.8 °F 28.6 °F 19.4 °F 56% 30.20 in 10.0 mi NNW 5.8 mph - N/A   Clear
9:55 PM 33.8 °F 27.7 °F 21.2 °F 60% 30.20 in 10.0 mi NNW 6.9 mph - N/A   Clear
10:15 PM 33.8 °F 27.7 °F 21.2 °F 60% 30.21 in 10.0 mi NNW 6.9 mph - N/A   Clear
10:35 PM 33.8 °F 30.8 °F 21.2 °F 60% 30.22 in 10.0 mi NW 3.5 mph - N/A   Clear
10:55 PM 32.0 °F 26.4 °F 19.4 °F 60% 30.22 in 10.0 mi NNE 5.8 mph - N/A   Clear
11:15 PM 33.8 °F 25.8 °F 21.2 °F 60% 30.23 in 10.0 mi North 10.4 mph - N/A   Clear
11:35 PM 42.8 °F 36.2 °F 21.2 °F 42% 30.25 in 10.0 mi NNE 12.7 mph 18.4 mph N/A   Clear
11:55 PM 42.8 °F 35.1 °F 23.0 °F 46% 30.26 in 10.0 mi NNE 16.1 mph - N/A   Clear